East Lynne, Missouri
Current Conditions -  °F | °C
As of 7:55 AM on Monday 24 Nov 2014 (Local Time) from KRCM Reporting Station
Broken Clouds Broken Clouds  
Wind Chill: 24°   Ceiling: 4100
Heat Index: 34°   Visibility: 10mi
Dew Point: 27°   Wind: 14mph
Humidity: 75%   Direction: 260°W
Pressure: 29.67"   Gusts: 17mph
Location:  38.67°N, 94.23°W
Report Text: KRCM 241355Z AUTO 26012G15KT 10SM BKN041 01/M03 A2967 RMK AO2
Loading
Personal Weather Stations






























Interactive Weather Map New forecast layout! Learn more

10-Day Weather Forecast

Advertisements
Track Severe Weather on mobile